createdAt,value
2017-06-30T21:46:25.114Z,27.60
2017-06-30T21:48:53.405Z,27.70
2017-06-30T21:51:22.460Z,28.00
2017-06-30T21:53:50.779Z,28.00
2017-06-30T21:56:19.053Z,28.10
2017-06-30T21:58:47.329Z,28.20
2017-06-30T22:01:15.629Z,28.30
2017-06-30T22:03:44.694Z,28.30
2017-06-30T22:06:15.993Z,28.30
2017-06-30T22:08:44.300Z,28.40
2017-06-30T22:11:13.339Z,28.40
2017-06-30T22:13:41.609Z,28.40
2017-06-30T22:16:09.918Z,28.40
2017-06-30T22:18:38.173Z,28.40
2017-06-30T22:21:06.458Z,28.50
2017-06-30T22:23:34.741Z,28.50
2017-06-30T22:26:03.033Z,27.90
2017-06-30T22:28:32.061Z,26.30
2017-06-30T22:31:00.389Z,26.30
2017-06-30T22:33:28.692Z,25.80
2017-06-30T22:35:56.973Z,25.40
2017-06-30T22:38:25.278Z,25.00
2017-06-30T22:40:53.539Z,24.80
2017-06-30T22:43:21.832Z,24.60
2017-06-30T22:45:50.136Z,24.40
2017-06-30T22:48:19.182Z,23.80
2017-06-30T22:50:47.438Z,23.80
2017-06-30T22:53:15.794Z,23.60
2017-06-30T22:55:44.081Z,23.50
2017-06-30T22:58:12.361Z,23.40
2017-06-30T23:00:41.427Z,23.20
2017-06-30T23:03:10.373Z,23.20
2017-06-30T23:05:38.654Z,23.10
2017-06-30T23:08:06.957Z,22.90
2017-06-30T23:10:35.231Z,22.90
2017-06-30T23:13:03.518Z,22.60
2017-06-30T23:15:31.802Z,22.30
2017-06-30T23:18:00.081Z,22.10
2017-06-30T23:20:29.107Z,22.10
2017-06-30T23:22:57.414Z,22.10
2017-06-30T23:25:26.465Z,22.10
2017-06-30T23:27:54.717Z,22.00
2017-06-30T23:30:23.029Z,22.00
2017-06-30T23:32:51.309Z,22.00
2017-06-30T23:35:19.589Z,21.80
2017-06-30T23:37:47.889Z,21.80
2017-06-30T23:40:16.931Z,21.30
2017-06-30T23:42:45.189Z,21.40
2017-06-30T23:45:13.498Z,21.40
2017-06-30T23:47:41.788Z,21.30
2017-06-30T23:50:10.114Z,21.30
2017-06-30T23:52:39.197Z,21.10
2017-06-30T23:55:07.500Z,21.00
2017-06-30T23:57:35.781Z,21.10
